Terminal Aerodrome Forecast
Issued by NWS Goodland, KS

Home | Current Version | Previous Version | Text Only | Print | Product List | Glossary On
Versions: 1 2 3 4 5 6 7 8 9 10 11 12 13 14 15 16 17 18 19 20 21 22 23 24 25 26
000
FTUS43 KGLD 221733
TAFGLD
TAF
KGLD 221733Z 2218/2318 19020G30KT P6SM BKN200
     FM230000 17018G28KT P6SM SCT080 BKN250
     FM231000 18014KT P6SM BKN200 WS010/20045KT
     FM231400 19013KT P6SM FEW040 SCT100 BKN150 PROB30 2314/2318
      -SHRA BKN050=

USA.gov is the U.S. government's official web portal to all federal, state and local government web resources and services.